createdAt,value
2023-02-18T00:01:00.043Z,99.9
2023-02-18T00:05:12.579Z,99.9
2023-02-18T00:07:18.844Z,99.9
2023-02-18T00:09:25.091Z,99.9
2023-02-18T00:11:31.342Z,99.9
2023-02-18T00:13:40.434Z,99.9
2023-02-18T00:17:52.934Z,99.9
2023-02-18T00:19:59.190Z,99.9
2023-02-18T00:22:05.452Z,99.9
2023-02-18T00:24:11.710Z,99.9
2023-02-18T00:26:17.983Z,99.9
2023-02-18T00:28:27.066Z,99.9
2023-02-18T00:30:33.423Z,99.9
2023-02-18T00:32:39.596Z,99.9
2023-02-18T00:34:45.878Z,99.9
2023-02-18T00:36:52.122Z,99.9
2023-02-18T00:38:58.383Z,99.9
2023-02-18T00:41:04.651Z,99.9
2023-02-18T00:43:13.715Z,99.9
2023-02-18T00:45:19.964Z,99.9
2023-02-18T00:47:26.251Z,99.9
2023-02-18T00:48:30.791Z,99.9
2023-02-18T00:50:37.040Z,99.9
2023-02-18T00:54:49.592Z,99.9
2023-02-18T00:59:04.920Z,99.9
2023-02-18T01:01:11.175Z,99.9
2023-02-18T01:03:17.447Z,99.9
2023-02-18T01:05:23.709Z,99.9
2023-02-18T01:07:29.979Z,99.9
2023-02-18T01:09:36.240Z,99.9
2023-02-18T01:11:45.349Z,99.9
2023-02-18T01:18:04.164Z,99.9
2023-02-18T01:20:10.380Z,99.9
2023-02-18T01:22:16.637Z,99.9
2023-02-18T01:24:22.903Z,99.9
2023-02-18T01:26:32.302Z,98.4
2023-02-18T01:28:38.285Z,96.2
2023-02-18T01:30:45.117Z,99.6
2023-02-18T01:32:51.376Z,99.8
2023-02-18T01:34:57.639Z,99.8
2023-02-18T01:37:03.911Z,99.8
2023-02-18T01:39:10.178Z,99.8
2023-02-18T01:41:19.248Z,99.8
2023-02-18T01:43:25.529Z,99.9
2023-02-18T01:45:31.789Z,99.9
2023-02-18T01:46:36.355Z,99.9
2023-02-18T01:55:04.238Z,99.9
2023-02-18T01:57:10.470Z,99.9
2023-02-18T01:59:16.729Z,99.9
2023-02-18T02:01:23.011Z,1
2023-02-18T02:03:29.274Z,1
2023-02-18T02:05:35.534Z,1
2023-02-18T02:07:41.838Z,1
2023-02-18T02:09:50.871Z,1
2023-02-18T02:11:57.148Z,1
2023-02-18T02:14:03.410Z,1
2023-02-18T02:20:22.197Z,68.8
2023-02-18T02:26:43.853Z,99.8
2023-02-18T02:28:50.096Z,99.8
2023-02-18T02:30:56.387Z,99.8
2023-02-18T02:33:02.605Z,99.8
2023-02-18T02:35:08.900Z,99.9
2023-02-18T02:41:30.501Z,99.9
2023-02-18T02:43:36.751Z,99.9
2023-02-18T02:46:02.777Z,99.9
2023-02-18T02:50:15.190Z,99.9
2023-02-18T03:00:49.321Z,99.9
2023-02-18T03:05:01.895Z,99.9
2023-02-18T03:07:10.916Z,99.9
2023-02-18T03:09:17.310Z,99.9
2023-02-18T03:11:23.444Z,99.9
2023-02-18T03:13:29.681Z,99.9
2023-02-18T03:17:42.220Z,99.9
2023-02-18T03:24:03.806Z,99.9
2023-02-18T03:26:10.440Z,99.9
2023-02-18T03:28:17.915Z,99.9
2023-02-18T03:30:24.194Z,99.9
2023-02-18T03:32:30.430Z,99.9
2023-02-18T03:34:36.671Z,99.9
2023-02-18T03:36:45.729Z,1
2023-02-18T03:38:51.990Z,1
2023-02-18T03:44:09.046Z,1
2023-02-18T03:46:15.322Z,1
2023-02-18T03:54:43.138Z,1
2023-02-18T03:56:49.430Z,1
2023-02-18T03:58:55.677Z,1
2023-02-18T04:01:01.976Z,1
2023-02-18T04:03:08.202Z,1
2023-02-18T04:07:23.532Z,1
2023-02-18T04:09:29.803Z,1
2023-02-18T04:20:03.969Z,1
2023-02-18T04:22:10.216Z,1
2023-02-18T04:26:22.766Z,1
2023-02-18T04:30:35.505Z,1
2023-02-18T04:32:41.588Z,1
2023-02-18T04:34:50.677Z,2.8
2023-02-18T04:36:56.930Z,3
2023-02-18T04:39:03.234Z,3.5
2023-02-18T04:44:20.289Z,6.6
2023-02-18T04:48:35.640Z,10.3
2023-02-18T04:50:41.931Z,11.7
2023-02-18T04:52:48.184Z,15.6
2023-02-18T04:54:54.459Z,16.3
2023-02-18T04:57:00.778Z,18.6
2023-02-18T04:59:07.014Z,25.8
2023-02-18T05:01:13.324Z,26.1
2023-02-18T05:03:22.372Z,32.1
2023-02-18T05:05:28.647Z,31.7
2023-02-18T05:07:34.930Z,31.8
2023-02-18T05:09:41.229Z,32
2023-02-18T05:11:47.484Z,32.4
2023-02-18T05:16:00.048Z,36.1
2023-02-18T05:18:09.101Z,44.4
2023-02-18T05:20:15.411Z,44.8
2023-02-18T05:22:21.655Z,45.1
2023-02-18T05:24:27.925Z,45.5
2023-02-18T05:26:34.193Z,49.3
2023-02-18T05:28:40.491Z,57
2023-02-18T05:35:02.120Z,62.1
2023-02-18T05:38:12.932Z,65.7
2023-02-18T05:40:19.203Z,66.6
2023-02-18T05:44:31.757Z,71.3
2023-02-18T05:46:40.900Z,74.4
2023-02-18T05:50:53.372Z,77.5
2023-02-18T05:52:59.677Z,79.7
2023-02-18T05:55:05.924Z,81.7
2023-02-18T05:57:12.201Z,86.2
2023-02-18T05:59:18.453Z,88.6
2023-02-18T06:01:27.536Z,90.1
2023-02-18T06:05:40.123Z,91.3
2023-02-18T06:07:46.397Z,92
2023-02-18T06:09:52.631Z,92.7
2023-02-18T06:11:58.957Z,93.2
2023-02-18T06:16:14.314Z,94.5
2023-02-18T06:20:26.847Z,95.3
2023-02-18T06:24:39.354Z,96.6
2023-02-18T06:28:51.900Z,98.3
2023-02-18T06:33:07.245Z,99.4
2023-02-18T06:37:33.483Z,99.9
2023-02-18T06:41:45.991Z,99.9
2023-02-18T06:43:55.057Z,99.9
2023-02-18T06:46:01.333Z,99.9
2023-02-18T06:48:07.662Z,99.9
2023-02-18T06:50:13.881Z,99.9
2023-02-18T06:52:20.145Z,99.9
2023-02-18T06:54:26.400Z,99.9
2023-02-18T06:56:32.714Z,99.9
2023-02-18T07:02:54.287Z,99.9
2023-02-18T07:07:06.855Z,99.9
2023-02-18T07:09:13.115Z,99.9
2023-02-18T07:11:19.453Z,99.9
2023-02-18T07:13:28.480Z,99.9
2023-02-18T07:15:34.781Z,99.9
2023-02-18T07:21:53.538Z,99.9
2023-02-18T07:23:59.814Z,99.9
2023-02-18T07:26:06.412Z,99.9
2023-02-18T07:28:15.157Z,99.9
2023-02-18T07:30:21.663Z,99.9
2023-02-18T07:32:27.696Z,99.9
2023-02-18T07:37:44.836Z,99.9
2023-02-18T07:39:51.071Z,99.9
2023-02-18T07:42:00.144Z,99.9
2023-02-18T07:46:12.832Z,99.9
2023-02-18T07:50:25.231Z,99.9
2023-02-18T07:52:31.535Z,99.9
2023-02-18T07:58:53.108Z,99.9
2023-02-18T08:00:59.367Z,99.9
2023-02-18T08:03:05.626Z,99.9
2023-02-18T08:05:11.903Z,99.9
2023-02-18T08:13:39.790Z,99.9
2023-02-18T08:17:52.358Z,99.9
2023-02-18T08:19:58.596Z,99.9
2023-02-18T08:26:20.193Z,99.9
2023-02-18T08:28:26.477Z,99.9
2023-02-18T08:30:32.831Z,99.9
2023-02-18T08:33:43.547Z,99.9
2023-02-18T08:35:49.816Z,99.9
2023-02-18T08:37:57.692Z,99.9
2023-02-18T08:40:05.170Z,99.9
2023-02-18T08:42:11.431Z,99.9
2023-02-18T08:44:17.716Z,99.9
2023-02-18T08:46:25.385Z,99.9
2023-02-18T08:48:30.253Z,99.9
2023-02-18T08:50:36.531Z,99.9
2023-02-18T08:52:42.790Z,99.9
2023-02-18T08:54:51.863Z,99.9
2023-02-18T08:56:58.151Z,99.9
2023-02-18T09:01:10.995Z,99.9
2023-02-18T09:03:16.968Z,99.9
2023-02-18T09:05:23.202Z,99.9
2023-02-18T09:07:29.474Z,99.9
2023-02-18T09:09:38.563Z,99.9
2023-02-18T09:11:44.819Z,99.9
2023-02-18T09:13:51.105Z,99.9
2023-02-18T09:15:57.409Z,99.9
2023-02-18T09:18:03.614Z,99.9
2023-02-18T09:20:09.881Z,99.9
2023-02-18T09:22:16.154Z,99.9
2023-02-18T09:26:31.482Z,99.9
2023-02-18T09:29:42.309Z,99.9
2023-02-18T09:31:50.262Z,99.9
2023-02-18T09:33:56.373Z,99.9
2023-02-18T09:52:58.353Z,99.9
2023-02-18T10:07:44.975Z,99.9
2023-02-18T10:09:51.223Z,99.9
2023-02-18T10:11:57.467Z,99.9
2023-02-18T10:14:03.753Z,99.9
2023-02-18T10:18:16.271Z,99.9
2023-02-18T10:20:22.525Z,99.9
2023-02-18T10:22:31.595Z,99.9
2023-02-18T10:24:37.844Z,99.9
2023-02-18T10:26:44.140Z,99.9
2023-02-18T10:29:04.083Z,99.9
2023-02-18T10:33:16.608Z,99.9
2023-02-18T10:35:25.687Z,99.9
2023-02-18T10:37:31.926Z,99.9
2023-02-18T10:41:44.474Z,99.9
2023-02-18T10:43:50.748Z,99.9
2023-02-18T10:45:57.010Z,99.9
2023-02-18T10:48:03.279Z,99.9
2023-02-18T10:50:12.348Z,99.9
2023-02-18T10:52:18.620Z,99.9
2023-02-18T10:54:24.865Z,99.9
2023-02-18T10:56:31.205Z,99.9
2023-02-18T10:58:37.407Z,99.9
2023-02-18T11:00:43.663Z,99.9
2023-02-18T11:04:59.080Z,99.9
2023-02-18T11:07:05.288Z,99.9
2023-02-18T11:09:12.028Z,99.9
2023-02-18T11:11:18.271Z,99.9
2023-02-18T11:15:30.828Z,99.9
2023-02-18T11:17:37.142Z,99.9
2023-02-18T11:19:46.180Z,99.9
2023-02-18T11:21:52.471Z,99.9
2023-02-18T11:25:03.300Z,99.9
2023-02-18T11:27:09.554Z,99.9
2023-02-18T11:33:31.216Z,99.9
2023-02-18T11:37:43.776Z,99.9
2023-02-18T11:39:50.028Z,99.9
2023-02-18T11:41:56.326Z,99.9
2023-02-18T11:44:02.661Z,99.9
2023-02-18T11:46:08.901Z,99.9
2023-02-18T11:48:17.981Z,99.9
2023-02-18T11:50:24.404Z,99.9
2023-02-18T11:52:30.544Z,99.9
2023-02-18T11:54:36.809Z,99.9
2023-02-18T11:56:43.120Z,99.9
2023-02-18T12:03:04.782Z,99.9
2023-02-18T12:09:23.642Z,99.9
2023-02-18T12:15:42.511Z,99.9
2023-02-18T12:17:51.616Z,99.9
2023-02-18T12:19:57.893Z,99.9
2023-02-18T12:22:04.235Z,99.9
2023-02-18T12:23:08.724Z,99.9
2023-02-18T12:25:15.023Z,99.9
2023-02-18T12:27:21.290Z,99.9
2023-02-18T12:31:36.791Z,99.9
2023-02-18T12:33:42.976Z,99.9
2023-02-18T12:35:49.244Z,99.9
2023-02-18T12:37:55.520Z,99.9
2023-02-18T12:40:01.808Z,99.9
2023-02-18T12:42:08.090Z,99.9
2023-02-18T12:46:23.500Z,99.9
2023-02-18T12:48:29.776Z,99.9
2023-02-18T12:50:36.076Z,99.9
2023-02-18T12:52:42.351Z,99.9
2023-02-18T12:54:48.619Z,99.9
2023-02-18T12:56:54.932Z,99.9
2023-02-18T12:59:01.220Z,99.9
2023-02-18T13:01:10.334Z,99.9
2023-02-18T13:03:16.666Z,99.9
2023-02-18T13:05:22.906Z,99.9
2023-02-18T13:07:29.213Z,99.9
2023-02-18T13:09:35.506Z,99.9
2023-02-18T13:11:41.785Z,99.9
2023-02-18T13:18:03.464Z,99.9
2023-02-18T13:23:20.612Z,99.9
2023-02-18T13:29:42.287Z,99.9
2023-02-18T13:31:48.696Z,99.9
2023-02-18T13:33:55.020Z,99.9
2023-02-18T13:36:01.182Z,99.9
2023-02-18T13:38:07.469Z,99.9
2023-02-18T13:40:13.736Z,99.9
2023-02-18T13:42:20.050Z,99.9
2023-02-18T13:44:29.172Z,99.9
2023-02-18T13:46:35.447Z,99.9
2023-02-18T13:48:41.734Z,99.9
2023-02-18T13:50:48.020Z,99.9
2023-02-18T13:52:54.283Z,99.9
2023-02-18T13:55:00.588Z,99.9
2023-02-18T13:59:15.970Z,98.8
2023-02-18T14:01:22.265Z,98.8
2023-02-18T14:03:28.553Z,99
2023-02-18T14:05:34.839Z,99.7
2023-02-18T14:07:41.109Z,99.9
2023-02-18T14:09:47.404Z,99.9
2023-02-18T14:14:02.791Z,57.7
2023-02-18T14:39:34.888Z,22.6
2023-02-18T14:41:43.989Z,9.3
2023-02-18T14:45:56.624Z,1
2023-02-18T14:48:02.871Z,1
2023-02-18T14:50:09.150Z,2.2
2023-02-18T14:52:15.449Z,20.5
2023-02-18T14:54:21.732Z,1
2023-02-18T14:56:30.839Z,1
2023-02-18T14:58:37.141Z,1
2023-02-18T15:00:43.403Z,1
2023-02-18T15:02:49.718Z,1
2023-02-18T15:07:02.280Z,1
2023-02-18T15:11:17.690Z,1
2023-02-18T15:13:24.004Z,1
2023-02-18T15:15:30.266Z,1
2023-02-18T15:16:34.821Z,1
2023-02-18T15:20:47.378Z,1
2023-02-18T15:25:02.769Z,1
2023-02-18T15:27:09.052Z,1
2023-02-18T15:33:27.904Z,1
2023-02-18T15:35:35.780Z,1
2023-02-18T15:37:42.031Z,1
2023-02-18T15:39:51.130Z,1
2023-02-18T15:48:16.274Z,1
2023-02-18T15:50:22.557Z,1
2023-02-18T15:54:37.957Z,1
2023-02-18T15:56:44.251Z,1
2023-02-18T15:58:50.560Z,1
2023-02-18T16:07:15.684Z,1
2023-02-18T16:09:24.797Z,1
2023-02-18T16:11:31.085Z,1
2023-02-18T16:14:41.922Z,1
2023-02-18T16:16:48.277Z,2.4
2023-02-18T16:18:54.477Z,42.4
2023-02-18T16:21:00.765Z,86.1
2023-02-18T16:23:09.854Z,99.8
2023-02-18T16:25:16.149Z,99.8
2023-02-18T16:27:22.449Z,99.8
2023-02-18T16:29:28.730Z,99.6
2023-02-18T16:31:35.073Z,99.4
2023-02-18T16:33:41.288Z,99.4
2023-02-18T16:35:50.223Z,99.4
2023-02-18T16:40:05.579Z,99.6
2023-02-18T16:50:35.053Z,98.1
2023-02-18T16:52:44.101Z,79.7
2023-02-18T16:54:50.461Z,90.3
2023-02-18T16:56:56.662Z,98.4
2023-02-18T16:59:02.971Z,99
2023-02-18T17:01:09.282Z,99.1
2023-02-18T17:03:15.528Z,99.2
2023-02-18T17:07:30.900Z,99.3
2023-02-18T17:09:37.174Z,99.5
2023-02-18T17:11:43.447Z,99.5
2023-02-18T17:14:54.267Z,99.9
2023-02-18T17:17:00.561Z,99.9
2023-02-18T17:19:06.845Z,99.9
2023-02-18T17:21:15.952Z,99.9
2023-02-18T17:23:22.250Z,99.9
2023-02-18T17:25:28.514Z,99.9
2023-02-18T17:27:34.800Z,99.9
2023-02-18T17:29:41.084Z,99.9
2023-02-18T17:33:53.626Z,99.9
2023-02-18T17:36:02.727Z,99.9
2023-02-18T17:38:09.009Z,99.9
2023-02-18T17:40:15.298Z,99.9
2023-02-18T17:42:21.595Z,99.9
2023-02-18T17:46:34.134Z,99.9
2023-02-18T17:48:40.578Z,99.9
2023-02-18T17:50:49.525Z,99.9
2023-02-18T17:52:55.843Z,99.9
2023-02-18T17:55:02.101Z,99.9
2023-02-18T18:01:21.114Z,99.9
2023-02-18T18:03:27.222Z,99.9
2023-02-18T18:05:36.323Z,99.9
2023-02-18T18:07:42.618Z,99.9
2023-02-18T18:09:48.956Z,99.9
2023-02-18T18:12:09.243Z,99.9
2023-02-18T18:16:21.877Z,99.9
2023-02-18T18:18:30.916Z,99.9
2023-02-18T18:20:37.271Z,99.9
2023-02-18T18:22:43.465Z,99.9
2023-02-18T18:24:49.892Z,99.9
2023-02-18T18:26:56.047Z,99.9
2023-02-18T18:29:02.342Z,99.9
2023-02-18T18:31:08.948Z,99.9
2023-02-18T18:33:17.715Z,99.9
2023-02-18T18:35:24.009Z,99.9
2023-02-18T18:39:36.568Z,99.9
2023-02-18T18:41:42.860Z,99.9
2023-02-18T18:43:49.166Z,99.9
2023-02-18T18:45:55.447Z,99.9
2023-02-18T18:48:04.962Z,1
2023-02-18T18:50:11.214Z,1
2023-02-18T18:54:23.811Z,99.6
2023-02-18T18:56:30.069Z,99.8
2023-02-18T18:58:36.349Z,99.8
2023-02-18T19:00:42.654Z,99.8
2023-02-18T19:02:51.734Z,99.8
2023-02-18T19:07:04.282Z,1
2023-02-18T19:08:08.847Z,1
2023-02-18T19:10:15.104Z,17.7
2023-02-18T19:12:21.363Z,80.9
2023-02-18T19:18:43.022Z,99.8
2023-02-18T19:20:49.288Z,99.8
2023-02-18T19:22:55.582Z,99.8
2023-02-18T19:25:01.848Z,99.8
2023-02-18T19:27:08.120Z,99.9
2023-02-18T19:29:14.389Z,99.9
2023-02-18T19:31:23.604Z,99.9
2023-02-18T19:33:29.737Z,99.9
2023-02-18T19:37:42.295Z,99.9
2023-02-18T19:44:01.098Z,99.9
2023-02-18T19:50:22.718Z,34.2
2023-02-18T19:54:35.273Z,1
2023-02-18T19:56:41.553Z,1
2023-02-18T20:00:56.896Z,1
2023-02-18T20:03:03.269Z,1
2023-02-18T20:05:09.422Z,1
2023-02-18T20:06:13.974Z,1
2023-02-18T20:08:20.234Z,1
2023-02-18T20:10:26.489Z,1
2023-02-18T20:14:41.841Z,1
2023-02-18T20:16:48.114Z,1
2023-02-18T20:18:54.366Z,1
2023-02-18T20:21:00.656Z,99.6
2023-02-18T20:23:06.902Z,99.8
2023-02-18T20:25:13.185Z,99.8
2023-02-18T20:27:19.440Z,99.8
2023-02-18T20:29:28.525Z,99.8
2023-02-18T20:31:34.864Z,99.8
2023-02-18T20:33:41.050Z,99.9
2023-02-18T20:35:47.341Z,99.9
2023-02-18T20:39:59.877Z,99.9
2023-02-18T20:42:15.964Z,99.9
2023-02-18T20:46:21.510Z,99.9
2023-02-18T20:48:27.757Z,99.9
2023-02-18T20:50:34.021Z,99.9
2023-02-18T20:52:40.284Z,99.9
2023-02-18T20:59:01.900Z,99.9
2023-02-18T21:01:08.350Z,99.9
2023-02-18T21:03:14.452Z,99.9
2023-02-18T21:04:18.987Z,99.9
2023-02-18T21:14:53.164Z,99.9
2023-02-18T21:23:18.222Z,99.9
2023-02-18T21:25:24.511Z,99.9
2023-02-18T21:29:39.878Z,99.9
2023-02-18T21:31:46.159Z,99.9
2023-02-18T21:33:52.378Z,99.9
2023-02-18T21:35:58.684Z,99.9
2023-02-18T21:38:04.908Z,99.9
2023-02-18T21:40:12.753Z,1
2023-02-18T21:42:21.777Z,1
2023-02-18T21:44:41.292Z,1
2023-02-18T21:52:53.131Z,1
2023-02-18T21:57:08.457Z,1
2023-02-18T21:59:14.716Z,1
2023-02-18T22:01:21.050Z,1
2023-02-18T22:03:46.898Z,1
2023-02-18T22:05:53.142Z,1
2023-02-18T22:07:59.416Z,1
2023-02-18T22:10:08.498Z,1
2023-02-18T22:12:14.763Z,1
2023-02-18T22:16:27.318Z,99.9
2023-02-18T22:18:33.571Z,99.9
2023-02-18T22:20:39.849Z,99.9
2023-02-18T22:22:46.117Z,1
2023-02-18T22:24:55.185Z,1
2023-02-18T22:27:01.531Z,1
2023-02-18T22:29:07.725Z,1
2023-02-18T22:31:14.362Z,1
2023-02-18T22:33:20.239Z,1
2023-02-18T22:35:26.499Z,1
2023-02-18T22:37:32.802Z,1
2023-02-18T22:39:41.837Z,1
2023-02-18T22:41:48.111Z,1
2023-02-18T22:46:00.680Z,1
2023-02-18T22:48:06.926Z,1
2023-02-18T22:50:13.195Z,1
2023-02-18T22:56:34.809Z,99.8
2023-02-18T22:58:41.079Z,99.8
2023-02-18T22:59:45.629Z,99.8
2023-02-18T23:01:51.893Z,99.8
2023-02-18T23:03:58.234Z,99.8
2023-02-18T23:06:04.424Z,99.8
2023-02-18T23:08:13.510Z,99.9
2023-02-18T23:10:19.771Z,99.9
2023-02-18T23:12:26.062Z,99.9
2023-02-18T23:14:32.369Z,51.7
2023-02-18T23:18:44.863Z,99.6
2023-02-18T23:20:51.128Z,99.8
2023-02-18T23:23:00.238Z,99.8
2023-02-18T23:25:06.522Z,99.8
2023-02-18T23:27:12.770Z,99.8
2023-02-18T23:31:25.448Z,99.9
2023-02-18T23:33:31.548Z,99.9
2023-02-18T23:35:37.836Z,99.9
2023-02-18T23:37:46.937Z,61.3
2023-02-18T23:39:53.209Z,32.9
2023-02-18T23:41:59.448Z,1
2023-02-18T23:44:05.736Z,1
2023-02-18T23:46:12.029Z,1
2023-02-18T23:48:18.269Z,99.6
2023-02-18T23:50:24.563Z,99.8
2023-02-18T23:52:33.643Z,99.8
2023-02-18T23:54:39.887Z,99.8
2023-02-18T23:56:46.186Z,99.8
2023-02-18T23:59:56.997Z,99.9
